Observation data for Brownfield on 01/10/2019      Previous  Date  Next       Current Mesonet Observations  Soil Data  Daily Summary Page  Observations in Plain Language
KBWS 100600Z 21004KT 07/M02 A3033 RMK A01 T00671015  RH  056%=      5-min Rain = 0
KBWS 100605Z 21004KT 07/M01 A3033 RMK A01 T00671013  RH  057%=      5-min Rain = 0
KBWS 100610Z 21004KT 07/M01 A3032 RMK A01 T00681014  RH  056%=      5-min Rain = 0
KBWS 100615Z 21004KT 07/M01 A3032 RMK A01 T00681014  RH  057%=      5-min Rain = 0
KBWS 100620Z 20004KT 07/M01 A3031 RMK A01 T00681010  RH  058%=      5-min Rain = 0
KBWS 100625Z 21005KT 07/M01 A3032 RMK A01 T00671008  RH  059%=      5-min Rain = 0
KBWS 100630Z 22005KT 07/M01 A3032 RMK A01 T00681012  RH  057%=      5-min Rain = 0
KBWS 100635Z 22005KT 07/M02 A3032 RMK A01 T00691015  RH  056%=      5-min Rain = 0
KBWS 100640Z 22005KT 07/M02 A3031 RMK A01 T00701019  RH  054%=      5-min Rain = 0
KBWS 100645Z 22004KT 07/M02 A3031 RMK A01 T00701020  RH  053%=      5-min Rain = 0
KBWS 100650Z 21005KT 07/M02 A3031 RMK A01 T00701018  RH  054%=      5-min Rain = 0
KBWS 100655Z 21006KT 07/M02 A3031 RMK A01 T00701018  RH  054%=      5-min Rain = 0
KBWS 100700Z 21006KT 07/M02 A3031 RMK A01 T00711020  RH  053%=      5-min Rain = 0
KBWS 100705Z 21006KT 07/M02 A3031 RMK A01 T00711020  RH  053%=      5-min Rain = 0
KBWS 100710Z 21006KT 07/M02 A3031 RMK A01 T00711020  RH  053%=      5-min Rain = 0
KBWS 100715Z 20005KT 07/M02 A303 RMK A01 T00711021  RH  052%=      5-min Rain = 0
KBWS 100720Z 21004KT 07/M02 A303 RMK A01 T00721021  RH  052%=      5-min Rain = 0
KBWS 100725Z 21003KT 07/M02 A303 RMK A01 T00711020  RH  053%=      5-min Rain = 0
KBWS 100730Z 20004KT 07/M02 A303 RMK A01 T00711019  RH  053%=      5-min Rain = 0
KBWS 100735Z 20005KT 07/M02 A303 RMK A01 T00711019  RH  053%=      5-min Rain = 0
KBWS 100740Z 20005KT 07/M02 A303 RMK A01 T00711019  RH  053%=      5-min Rain = 0
KBWS 100745Z 21006KT 07/M02 A303 RMK A01 T00721022  RH  052%=      5-min Rain = 0
KBWS 100750Z 20007KT 07/M02 A303 RMK A01 T00721020  RH  053%=      5-min Rain = 0
KBWS 100755Z 19007KT 07/M02 A3029 RMK A01 T00711018  RH  054%=      5-min Rain = 0
KBWS 100800Z 18007KT 07/M02 A3029 RMK A01 T00711015  RH  055%=      5-min Rain = 0
KBWS 100805Z 17008KT 07/M01 A3028 RMK A01 T00691007  RH  059%=      5-min Rain = 0
KBWS 100810Z 18009KT 07/00 A3028 RMK A01 T00660000  RH  064%=      5-min Rain = 0
KBWS 100815Z 19009KT 06/00 A3029 RMK A01 T00630004  RH  067%=      5-min Rain = 0
KBWS 100820Z 19010KT 06/01 A3029 RMK A01 T00610007  RH  069%=      5-min Rain = 0
KBWS 100825Z 19008KT 06/01 A3029 RMK A01 T00600009  RH  070%=      5-min Rain = 0
KBWS 100830Z 20006KT 06/01 A3029 RMK A01 T00600011  RH  072%=      5-min Rain = 0
KBWS 100835Z 20005KT 06/01 A3029 RMK A01 T00610013  RH  073%=      5-min Rain = 0
KBWS 100840Z 21005KT 06/01 A3029 RMK A01 T00610013  RH  072%=      5-min Rain = 0
KBWS 100845Z 19007KT 06/01 A3028 RMK A01 T00620014  RH  072%=      5-min Rain = 0
KBWS 100850Z 18007KT 06/02 A3028 RMK A01 T00620017  RH  074%=      5-min Rain = 0
KBWS 100855Z 19009KT 06/01 A3028 RMK A01 T00630014  RH  072%=      5-min Rain = 0
KBWS 100900Z 19009KT 06/01 A3028 RMK A01 T00630011  RH  070%=      5-min Rain = 0
KBWS 100905Z 19009KT 06/01 A3027 RMK A01 T00630011  RH  070%=      5-min Rain = 0
KBWS 100910Z 20008KT 06/01 A3028 RMK A01 T00610011  RH  071%=      5-min Rain = 0
KBWS 100915Z 20007KT 06/01 A3028 RMK A01 T00610010  RH  071%=      5-min Rain = 0
KBWS 100920Z 19006KT 06/01 A3027 RMK A01 T00600010  RH  071%=      5-min Rain = 0
KBWS 100925Z 19007KT 06/01 A3027 RMK A01 T00570009  RH  072%=      5-min Rain = 0
KBWS 100930Z 20008KT 06/01 A3027 RMK A01 T00550011  RH  074%=      5-min Rain = 0
KBWS 100935Z 19008KT 05/01 A3026 RMK A01 T00540010  RH  074%=      5-min Rain = 0
KBWS 100940Z 19008KT 05/01 A3026 RMK A01 T00540009  RH  074%=      5-min Rain = 0
KBWS 100945Z 18008KT 05/01 A3025 RMK A01 T00520007  RH  073%=      5-min Rain = 0
KBWS 100950Z 19008KT 05/01 A3025 RMK A01 T00500005  RH  074%=      5-min Rain = 0
KBWS 100955Z 19007KT 05/01 A3025 RMK A01 T00480005  RH  074%=      5-min Rain = 0
KBWS 101000Z 20008KT 05/01 A3025 RMK A01 T00470005  RH  075%=      5-min Rain = 0
KBWS 101005Z 19009KT 05/01 A3025 RMK A01 T00470005  RH  075%=      5-min Rain = 0
KBWS 101010Z 19010KT 05/01 A3024 RMK A01 T00470005  RH  075%=      5-min Rain = 0
KBWS 101015Z 19010KT 05/00 A3024 RMK A01 T00490004  RH  073%=      5-min Rain = 0
KBWS 101020Z 20009KT 05/00 A3025 RMK A01 T00490004  RH  073%=      5-min Rain = 0
KBWS 101025Z 20009KT 05/01 A3025 RMK A01 T00510005  RH  073%=      5-min Rain = 0
KBWS 101030Z 20009KT 05/01 A3025 RMK A01 T00530006  RH  073%=      5-min Rain = 0
KBWS 101035Z 20009KT 05/01 A3025 RMK A01 T00540006  RH  072%=      5-min Rain = 0
KBWS 101040Z 20010KT 06/01 A3024 RMK A01 T00550006  RH  072%=      5-min Rain = 0
KBWS 101045Z 19010KT 06/01 A3024 RMK A01 T00550006  RH  072%=      5-min Rain = 0
KBWS 101050Z 20010KT 05/01 A3024 RMK A01 T00540006  RH  072%=      5-min Rain = 0
KBWS 101055Z 20009KT 05/01 A3023 RMK A01 T00540006  RH  072%=      5-min Rain = 0
KBWS 101100Z 20008KT 05/01 A3023 RMK A01 T00530006  RH  073%=      5-min Rain = 0
KBWS 101105Z 21007KT 05/01 A3023 RMK A01 T00520007  RH  073%=      5-min Rain = 0
KBWS 101110Z 20007KT 05/01 A3023 RMK A01 T00500006  RH  074%=      5-min Rain = 0
KBWS 101115Z 20007KT 05/01 A3023 RMK A01 T00470006  RH  076%=      5-min Rain = 0
KBWS 101120Z 21007KT 05/01 A3023 RMK A01 T00450006  RH  076%=      5-min Rain = 0
KBWS 101125Z 21007KT 05/01 A3023 RMK A01 T00450007  RH  077%=      5-min Rain = 0
KBWS 101130Z 21006KT 05/01 A3023 RMK A01 T00460008  RH  077%=      5-min Rain = 0
KBWS 101135Z 21007KT 05/01 A3023 RMK A01 T00470009  RH  077%=      5-min Rain = 0
KBWS 101140Z 21007KT 05/01 A3023 RMK A01 T00480010  RH  077%=      5-min Rain = 0
KBWS 101145Z 21006KT 05/01 A3023 RMK A01 T00480010  RH  077%=      5-min Rain = 0
KBWS 101150Z 20006KT 05/01 A3022 RMK A01 T00470009  RH  077%=      5-min Rain = 0
KBWS 101155Z 20006KT 05/01 A3022 RMK A01 T00450009  RH  078%=      5-min Rain = 0
KBWS 101200Z 19005KT 04/01 A3022 RMK A01 T00430009  RH  080%=      5-min Rain = 0
KBWS 101205Z 18006KT 04/01 A3021 RMK A01 T00410008  RH  080%=      5-min Rain = 0
KBWS 101210Z 18007KT 04/01 A3021 RMK A01 T00380008  RH  082%=      5-min Rain = 0
KBWS 101215Z 18006KT 04/01 A3021 RMK A01 T00380008  RH  082%=      5-min Rain = 0
KBWS 101220Z 18005KT 04/01 A3021 RMK A01 T00380007  RH  081%=      5-min Rain = 0
KBWS 101225Z 18005KT 04/01 A3021 RMK A01 T00360006  RH  082%=      5-min Rain = 0
KBWS 101230Z 18005KT 04/01 A3021 RMK A01 T00350006  RH  083%=      5-min Rain = 0
KBWS 101235Z 19006KT 03/01 A3021 RMK A01 T00340006  RH  083%=      5-min Rain = 0
KBWS 101240Z 18006KT 04/01 A3021 RMK A01 T00350006  RH  082%=      5-min Rain = 0
KBWS 101245Z 18006KT 03/01 A302 RMK A01 T00340006  RH  083%=      5-min Rain = 0
KBWS 101250Z 18005KT 03/01 A302 RMK A01 T00320006  RH  084%=      5-min Rain = 0
KBWS 101255Z 18007KT 03/01 A302 RMK A01 T00310007  RH  085%=      5-min Rain = 0
KBWS 101300Z 18007KT 04/01 A302 RMK A01 T00360010  RH  085%=      5-min Rain = 0
KBWS 101305Z 19008KT 04/01 A3021 RMK A01 T00420010  RH  081%=      5-min Rain = 0
KBWS 101310Z 19007KT 04/01 A3021 RMK A01 T00440009  RH  079%=      5-min Rain = 0
KBWS 101315Z 18007KT 04/01 A302 RMK A01 T00440008  RH  079%=      5-min Rain = 0
KBWS 101320Z 19007KT 04/01 A302 RMK A01 T00430008  RH  079%=      5-min Rain = 0
KBWS 101325Z 19006KT 04/01 A302 RMK A01 T00430009  RH  079%=      5-min Rain = 0
KBWS 101330Z 19007KT 04/01 A3021 RMK A01 T00430008  RH  079%=      5-min Rain = 0
KBWS 101335Z 20006KT 04/01 A3021 RMK A01 T00420008  RH  080%=      5-min Rain = 0
KBWS 101340Z 20006KT 04/01 A3021 RMK A01 T00400008  RH  081%=      5-min Rain = 0
KBWS 101345Z 19007KT 04/01 A302 RMK A01 T00390008  RH  081%=      5-min Rain = 0
KBWS 101350Z 18008KT 04/01 A302 RMK A01 T00390008  RH  081%=      5-min Rain = 0
KBWS 101355Z 18007KT 04/01 A302 RMK A01 T00400008  RH  081%=      5-min Rain = 0
KBWS 101400Z 17007KT 04/01 A302 RMK A01 T00390008  RH  081%=      5-min Rain = 0
KBWS 101405Z 18007KT 04/01 A302 RMK A01 T00370007  RH  081%=      5-min Rain = 0
KBWS 101410Z 17008KT 04/01 A3019 RMK A01 T00360006  RH  082%=      5-min Rain = 0
KBWS 101415Z 18009KT 04/01 A3019 RMK A01 T00360006  RH  082%=      5-min Rain = 0
KBWS 101420Z 18009KT 04/01 A3019 RMK A01 T00380008  RH  081%=      5-min Rain = 0
KBWS 101425Z 19009KT 04/01 A302 RMK A01 T00400008  RH  081%=      5-min Rain = 0
KBWS 101430Z 18009KT 04/01 A302 RMK A01 T00410009  RH  081%=      5-min Rain = 0
KBWS 101435Z 18010KT 04/01 A302 RMK A01 T00430010  RH  080%=      5-min Rain = 0
KBWS 101440Z 18010KT 05/01 A302 RMK A01 T00460010  RH  079%=      5-min Rain = 0
KBWS 101445Z 18009KT 05/01 A302 RMK A01 T00490011  RH  077%=      5-min Rain = 0
KBWS 101450Z 18009KT 05/01 A302 RMK A01 T00500011  RH  077%=      5-min Rain = 0
KBWS 101455Z 18009KT 05/01 A302 RMK A01 T00540013  RH  076%=      5-min Rain = 0
KBWS 101500Z 18009KT 06/01 A3021 RMK A01 T00570013  RH  074%=      5-min Rain = 0
KBWS 101505Z 19008KT 06/02 A3021 RMK A01 T00600015  RH  073%=      5-min Rain = 0
KBWS 101510Z 19008KT 06/02 A3021 RMK A01 T00630016  RH  072%=      5-min Rain = 0
KBWS 101515Z 19010KT 07/02 A3021 RMK A01 T00660016  RH  071%=      5-min Rain = 0
KBWS 101520Z 19011KT 07/02 A3021 RMK A01 T00670016  RH  071%=      5-min Rain = 0
KBWS 101525Z 19010KT 07/02 A3021 RMK A01 T00690018  RH  071%=      5-min Rain = 0
KBWS 101530Z 19013KT 07/02 A3021 RMK A01 T00710017  RH  069%=      5-min Rain = 0
KBWS 101535Z 20013KT 07/02 A3021 RMK A01 T00730019  RH  069%=      5-min Rain = 0
KBWS 101540Z 20014KT 07/02 A3021 RMK A01 T00740018  RH  069%=      5-min Rain = 0
KBWS 101545Z 20013KT 07/02 A3022 RMK A01 T00730018  RH  069%=      5-min Rain = 0
KBWS 101550Z 20013KT 07/02 A3021 RMK A01 T00740019  RH  069%=      5-min Rain = 0
KBWS 101555Z 20015KT 08/02 A3021 RMK A01 T00780020  RH  068%=      5-min Rain = 0
KBWS 101600Z 20017KT 08/02 A3022 RMK A01 T00780020  RH  067%=      5-min Rain = 0
KBWS 101605Z 20015KT 08/02 A3022 RMK A01 T00810022  RH  067%=      5-min Rain = 0
KBWS 101610Z 20015KT 09/02 A3022 RMK A01 T00850024  RH  066%=      5-min Rain = 0
KBWS 101615Z 20015G20KT 09/03 A3021 RMK A01 T00870025  RH  066%=      5-min Rain = 0
KBWS 101620Z 20016KT 09/02 A3021 RMK A01 T00870024  RH  065%=      5-min Rain = 0
KBWS 101625Z 20016KT 09/03 A3021 RMK A01 T00880025  RH  065%=      5-min Rain = 0
KBWS 101630Z 20016KT 09/03 A3021 RMK A01 T00920027  RH  065%=      5-min Rain = 0
KBWS 101635Z 20015KT 09/03 A3021 RMK A01 T00940029  RH  064%=      5-min Rain = 0
KBWS 101640Z 21016KT 10/03 A3021 RMK A01 T00950030  RH  065%=      5-min Rain = 0
KBWS 101645Z 21015KT 10/03 A3021 RMK A01 T00960031  RH  065%=      5-min Rain = 0
KBWS 101650Z 21015KT 10/03 A3021 RMK A01 T00980033  RH  065%=      5-min Rain = 0
KBWS 101655Z 21015KT 10/03 A3021 RMK A01 T00990032  RH  064%=      5-min Rain = 0
KBWS 101700Z 21015KT 10/03 A3021 RMK A01 T00990032  RH  064%=      5-min Rain = 0
KBWS 101705Z 21014G19KT 10/03 A3021 RMK A01 T00990032  RH  064%=      5-min Rain = 0
KBWS 101710Z 20015G20KT 10/03 A3021 RMK A01 T01000032  RH  064%=      5-min Rain = 0
KBWS 101715Z 20014KT 10/03 A302 RMK A01 T00990032  RH  064%=      5-min Rain = 0
KBWS 101720Z 20014KT 10/03 A302 RMK A01 T00980032  RH  064%=      5-min Rain = 0
KBWS 101725Z 20014KT 10/03 A302 RMK A01 T01010033  RH  063%=      5-min Rain = 0
KBWS 101730Z 20014KT 10/04 A3019 RMK A01 T01040035  RH  063%=      5-min Rain = 0
KBWS 101735Z 20013G18KT 11/04 A3019 RMK A01 T01060035  RH  062%=      5-min Rain = 0
KBWS 101740Z 21013KT 11/04 A3019 RMK A01 T01070036  RH  062%=      5-min Rain = 0
KBWS 101745Z 21012KT 11/04 A3018 RMK A01 T01120038  RH  061%=      5-min Rain = 0
KBWS 101750Z 20014KT 11/04 A3018 RMK A01 T01110037  RH  061%=      5-min Rain = 0
KBWS 101755Z 21013G18KT 11/04 A3017 RMK A01 T01120038  RH  061%=      5-min Rain = 0
KBWS 101800Z 20013KT 12/04 A3017 RMK A01 T01150039  RH  061%=      5-min Rain = 0
KBWS 101805Z 20011KT 12/04 A3016 RMK A01 T01170040  RH  060%=      5-min Rain = 0
KBWS 101810Z 21013KT 12/04 A3016 RMK A01 T01190041  RH  060%=      5-min Rain = 0
KBWS 101815Z 21013KT 12/04 A3015 RMK A01 T01210043  RH  060%=      5-min Rain = 0
KBWS 101820Z 21013KT 12/04 A3015 RMK A01 T01200041  RH  059%=      5-min Rain = 0
KBWS 101825Z 20015KT 12/04 A3014 RMK A01 T01220041  RH  058%=      5-min Rain = 0
KBWS 101830Z 21014KT 12/04 A3014 RMK A01 T01220042  RH  059%=      5-min Rain = 0
KBWS 101835Z 20014KT 13/04 A3014 RMK A01 T01250042  RH  058%=      5-min Rain = 0
KBWS 101840Z 20013KT 13/04 A3013 RMK A01 T01270043  RH  057%=      5-min Rain = 0
KBWS 101845Z 20014KT 13/04 A3013 RMK A01 T01260042  RH  057%=      5-min Rain = 0
KBWS 101850Z 21014KT 13/04 A3012 RMK A01 T01280044  RH  057%=      5-min Rain = 0
KBWS 101855Z 22013KT 13/05 A3012 RMK A01 T01310045  RH  057%=      5-min Rain = 0
KBWS 101900Z 20012KT 13/05 A3011 RMK A01 T01320045  RH  056%=      5-min Rain = 0
KBWS 101905Z 20011G16KT 14/05 A3011 RMK A01 T01360046  RH  055%=      5-min Rain = 0
KBWS 101910Z 20011KT 14/05 A3011 RMK A01 T01370045  RH  055%=      5-min Rain = 0
KBWS 101915Z 22010KT 14/05 A301 RMK A01 T01360047  RH  055%=      5-min Rain = 0
KBWS 101920Z 22012KT 14/05 A301 RMK A01 T01370048  RH  055%=      5-min Rain = 0
KBWS 101925Z 21008KT 14/05 A3009 RMK A01 T01410048  RH  054%=      5-min Rain = 0
KBWS 101930Z 22010KT 15/05 A3009 RMK A01 T01460049  RH  053%=      5-min Rain = 0
KBWS 101935Z 21010KT 15/05 A3009 RMK A01 T01480051  RH  053%=      5-min Rain = 0
KBWS 101940Z 21008KT 15/05 A3008 RMK A01 T01490050  RH  052%=      5-min Rain = 0
KBWS 101945Z 22008KT 15/05 A3008 RMK A01 T01510051  RH  052%=      5-min Rain = 0
KBWS 101950Z 21009G14KT 15/05 A3007 RMK A01 T01540052  RH  051%=      5-min Rain = 0
KBWS 101955Z 21009KT 15/05 A3007 RMK A01 T01540051  RH  051%=      5-min Rain = 0
KBWS 102000Z 21010G15KT 16/05 A3007 RMK A01 T01550053  RH  051%=      5-min Rain = 0
KBWS 102005Z 20011KT 16/05 A3007 RMK A01 T01590054  RH  050%=      5-min Rain = 0
KBWS 102010Z 21010KT 16/06 A3006 RMK A01 T01610056  RH  050%=      5-min Rain = 0
KBWS 102015Z 21011KT 16/05 A3006 RMK A01 T01600054  RH  050%=      5-min Rain = 0
KBWS 102020Z 21011KT 16/06 A3006 RMK A01 T01620056  RH  050%=      5-min Rain = 0
KBWS 102025Z 20011KT 16/05 A3006 RMK A01 T01620054  RH  049%=      5-min Rain = 0
KBWS 102030Z 21010G15KT 16/06 A3006 RMK A01 T01640056  RH  050%=      5-min Rain = 0
KBWS 102035Z 21012KT 16/05 A3005 RMK A01 T01620053  RH  049%=      5-min Rain = 0
KBWS 102040Z 20011KT 16/06 A3005 RMK A01 T01620055  RH  050%=      5-min Rain = 0
KBWS 102045Z 20011KT 16/06 A3005 RMK A01 T01640056  RH  049%=      5-min Rain = 0
KBWS 102050Z 21011KT 17/06 A3005 RMK A01 T01660056  RH  049%=      5-min Rain = 0
KBWS 102055Z 20011KT 16/06 A3005 RMK A01 T01630055  RH  049%=      5-min Rain = 0
KBWS 102100Z 20011G16KT 16/06 A3004 RMK A01 T01640056  RH  049%=      5-min Rain = 0
KBWS 102105Z 21011G16KT 17/06 A3004 RMK A01 T01660058  RH  050%=      5-min Rain = 0
KBWS 102110Z 20012KT 17/06 A3004 RMK A01 T01670057  RH  049%=      5-min Rain = 0
KBWS 102115Z 20012KT 17/06 A3004 RMK A01 T01650056  RH  049%=      5-min Rain = 0
KBWS 102120Z 20013KT 17/06 A3004 RMK A01 T01660056  RH  049%=      5-min Rain = 0
KBWS 102125Z 19013G18KT 17/06 A3004 RMK A01 T01660056  RH  049%=      5-min Rain = 0
KBWS 102130Z 20013G19KT 17/06 A3004 RMK A01 T01670059  RH  050%=      5-min Rain = 0
KBWS 102135Z 20012KT 16/06 A3004 RMK A01 T01630057  RH  050%=      5-min Rain = 0
KBWS 102140Z 20013KT 16/06 A3004 RMK A01 T01610058  RH  051%=      5-min Rain = 0
KBWS 102145Z 20014KT 16/06 A3004 RMK A01 T01590058  RH  052%=      5-min Rain = 0
KBWS 102150Z 20013KT 16/06 A3004 RMK A01 T01580058  RH  052%=      5-min Rain = 0
KBWS 102155Z 21013KT 16/06 A3004 RMK A01 T01570058  RH  052%=      5-min Rain = 0
KBWS 102200Z 19011KT 16/06 A3003 RMK A01 T01560057  RH  052%=      5-min Rain = 0
KBWS 102205Z 19012KT 16/06 A3003 RMK A01 T01560058  RH  053%=      5-min Rain = 0
KBWS 102210Z 19013KT 16/06 A3003 RMK A01 T01550058  RH  053%=      5-min Rain = 0
KBWS 102215Z 19013KT 16/06 A3003 RMK A01 T01550058  RH  053%=      5-min Rain = 0
KBWS 102220Z 19014KT 15/06 A3003 RMK A01 T01540057  RH  053%=      5-min Rain = 0
KBWS 102225Z 19012KT 15/06 A3003 RMK A01 T01520058  RH  054%=      5-min Rain = 0
KBWS 102230Z 19013KT 15/06 A3003 RMK A01 T01500058  RH  055%=      5-min Rain = 0
KBWS 102235Z 19012KT 15/06 A3003 RMK A01 T01490058  RH  055%=      5-min Rain = 0
KBWS 102240Z 19011KT 15/06 A3003 RMK A01 T01500059  RH  055%=      5-min Rain = 0
KBWS 102245Z 19011KT 15/06 A3003 RMK A01 T01500060  RH  056%=      5-min Rain = 0
KBWS 102250Z 20012KT 15/06 A3003 RMK A01 T01510060  RH  055%=      5-min Rain = 0
KBWS 102255Z 20010KT 15/06 A3003 RMK A01 T01510060  RH  055%=      5-min Rain = 0
KBWS 102300Z 20010KT 15/06 A3003 RMK A01 T01510061  RH  055%=      5-min Rain = 0
KBWS 102305Z 20010KT 15/06 A3003 RMK A01 T01510061  RH  056%=      5-min Rain = 0
KBWS 102310Z 20010KT 15/06 A3003 RMK A01 T01520061  RH  055%=      5-min Rain = 0
KBWS 102315Z 20008KT 15/06 A3003 RMK A01 T01500062  RH  056%=      5-min Rain = 0
KBWS 102320Z 20008KT 15/06 A3003 RMK A01 T01500062  RH  057%=      5-min Rain = 0
KBWS 102325Z 19008KT 15/06 A3003 RMK A01 T01480062  RH  057%=      5-min Rain = 0
KBWS 102330Z 19008KT 15/06 A3003 RMK A01 T01450063  RH  059%=      5-min Rain = 0
KBWS 102335Z 19008KT 14/06 A3003 RMK A01 T01430063  RH  059%=      5-min Rain = 0
KBWS 102340Z 19007KT 14/06 A3003 RMK A01 T01410064  RH  061%=      5-min Rain = 0
KBWS 102345Z 18007KT 14/06 A3003 RMK A01 T01380063  RH  062%=      5-min Rain = 0
KBWS 102350Z 18006KT 13/06 A3003 RMK A01 T01330063  RH  063%=      5-min Rain = 0
KBWS 102355Z 18006KT 13/06 A3002 RMK A01 T01330061  RH  063%=      5-min Rain = 0
KBWS 110000Z 17006KT 13/06 A3002 RMK A01 T01270061  RH  065%=      5-min Rain = 0
KBWS 110005Z 17006KT 12/06 A3002 RMK A01 T01200061  RH  068%=      5-min Rain = 0
KBWS 110010Z 17007KT 12/06 A3002 RMK A01 T01180058  RH  068%=      5-min Rain = 0
KBWS 110015Z 17007KT 12/06 A3002 RMK A01 T01180057  RH  067%=      5-min Rain = 0
KBWS 110020Z 17007KT 12/06 A3002 RMK A01 T01170057  RH  068%=      5-min Rain = 0
KBWS 110025Z 17007KT 12/06 A3002 RMK A01 T01150057  RH  068%=      5-min Rain = 0
KBWS 110030Z 17007KT 11/06 A3002 RMK A01 T01120058  RH  070%=      5-min Rain = 0
KBWS 110035Z 16007KT 11/06 A3002 RMK A01 T01120058  RH  070%=      5-min Rain = 0
KBWS 110040Z 16007KT 11/06 A3002 RMK A01 T01100057  RH  071%=      5-min Rain = 0
KBWS 110045Z 16007KT 11/06 A3002 RMK A01 T01090057  RH  071%=      5-min Rain = 0
KBWS 110050Z 16007KT 11/06 A3002 RMK A01 T01090059  RH  072%=      5-min Rain = 0
KBWS 110055Z 16007KT 11/06 A3002 RMK A01 T01110061  RH  072%=      5-min Rain = 0
KBWS 110100Z 16007KT 11/06 A3002 RMK A01 T01120061  RH  072%=      5-min Rain = 0
KBWS 110105Z 16007KT 11/06 A3002 RMK A01 T01110061  RH  072%=      5-min Rain = 0
KBWS 110110Z 17008KT 11/06 A3002 RMK A01 T01110061  RH  072%=      5-min Rain = 0
KBWS 110115Z 17010KT 11/06 A3002 RMK A01 T01130062  RH  072%=      5-min Rain = 0
KBWS 110120Z 17009KT 11/06 A3002 RMK A01 T01130062  RH  071%=      5-min Rain = 0
KBWS 110125Z 17009KT 11/06 A3002 RMK A01 T01120061  RH  072%=      5-min Rain = 0
KBWS 110130Z 17010KT 11/06 A3002 RMK A01 T01120062  RH  072%=      5-min Rain = 0
KBWS 110135Z 17011KT 11/06 A3002 RMK A01 T01130062  RH  072%=      5-min Rain = 0
KBWS 110140Z 17011KT 11/06 A3002 RMK A01 T01120062  RH  072%=      5-min Rain = 0
KBWS 110145Z 17011KT 11/06 A3001 RMK A01 T01120062  RH  073%=      5-min Rain = 0
KBWS 110150Z 18011KT 11/06 A3001 RMK A01 T01110063  RH  073%=      5-min Rain = 0
KBWS 110155Z 18011KT 11/06 A3001 RMK A01 T01110063  RH  073%=      5-min Rain = 0
KBWS 110200Z 18011KT 11/06 A3002 RMK A01 T01110063  RH  073%=      5-min Rain = 0
KBWS 110205Z 18011KT 11/06 A3001 RMK A01 T01110064  RH  074%=      5-min Rain = 0
KBWS 110210Z 17011KT 11/06 A3001 RMK A01 T01110064  RH  074%=      5-min Rain = 0
KBWS 110215Z 17010KT 11/06 A3001 RMK A01 T01110064  RH  074%=      5-min Rain = 0
KBWS 110220Z 17011KT 11/07 A3001 RMK A01 T01110065  RH  074%=      5-min Rain = 0
KBWS 110225Z 17010KT 11/07 A30 RMK A01 T01110065  RH  074%=      5-min Rain = 0
KBWS 110230Z 17010KT 11/07 A30 RMK A01 T01110065  RH  075%=      5-min Rain = 0
KBWS 110235Z 17011KT 11/07 A3001 RMK A01 T01110066  RH  074%=      5-min Rain = 0
KBWS 110240Z 17010KT 11/07 A3001 RMK A01 T01110066  RH  075%=      5-min Rain = 0
KBWS 110245Z 17011KT 11/07 A3001 RMK A01 T01100065  RH  075%=      5-min Rain = 0
KBWS 110250Z 18011KT 11/07 A3001 RMK A01 T01090066  RH  076%=      5-min Rain = 0
KBWS 110255Z 18010KT 11/07 A3001 RMK A01 T01090065  RH  076%=      5-min Rain = 0
KBWS 110300Z 18010KT 11/07 A3001 RMK A01 T01090066  RH  076%=      5-min Rain = 0
KBWS 110305Z 18010KT 11/07 A3001 RMK A01 T01090066  RH  076%=      5-min Rain = 0
KBWS 110310Z 18010KT 11/07 A3001 RMK A01 T01080066  RH  076%=      5-min Rain = 0
KBWS 110315Z 18009KT 11/07 A3001 RMK A01 T01070066  RH  076%=      5-min Rain = 0
KBWS 110320Z 18009KT 11/07 A3001 RMK A01 T01060065  RH  077%=      5-min Rain = 0
KBWS 110325Z 18010KT 11/07 A3001 RMK A01 T01050065  RH  078%=      5-min Rain = 0
KBWS 110330Z 18010KT 10/07 A3001 RMK A01 T01040065  RH  078%=      5-min Rain = 0
KBWS 110335Z 17010KT 10/07 A3001 RMK A01 T01030065  RH  078%=      5-min Rain = 0
KBWS 110340Z 17010KT 10/07 A3001 RMK A01 T01020065  RH  079%=      5-min Rain = 0
KBWS 110345Z 17010KT 10/07 A30 RMK A01 T01020065  RH  079%=      5-min Rain = 0
KBWS 110350Z 17011KT 10/07 A30 RMK A01 T01020065  RH  079%=      5-min Rain = 0
KBWS 110355Z 17011KT 10/06 A30 RMK A01 T01010064  RH  079%=      5-min Rain = 0
KBWS 110400Z 17011KT 10/06 A30 RMK A01 T01000064  RH  080%=      5-min Rain = 0
KBWS 110405Z 18012KT 10/06 A3001 RMK A01 T00990064  RH  080%=      5-min Rain = 0
KBWS 110410Z 18011KT 10/06 A3001 RMK A01 T00980063  RH  080%=      5-min Rain = 0
KBWS 110415Z 18012KT 10/06 A3001 RMK A01 T00970063  RH  081%=      5-min Rain = 0
KBWS 110420Z 18012KT 10/06 A3001 RMK A01 T00960063  RH  081%=      5-min Rain = 0
KBWS 110425Z 19011KT 09/06 A3002 RMK A01 T00930062  RH  082%=      5-min Rain = 0
KBWS 110430Z 18011KT 09/06 A3002 RMK A01 T00920062  RH  082%=      5-min Rain = 0
KBWS 110435Z 18011KT 09/06 A3002 RMK A01 T00910061  RH  083%=      5-min Rain = 0
KBWS 110440Z 18010KT 09/06 A3002 RMK A01 T00900061  RH  083%=      5-min Rain = 0
KBWS 110445Z 18010KT 09/06 A3002 RMK A01 T00900061  RH  083%=      5-min Rain = 0
KBWS 110450Z 18010KT 09/06 A3001 RMK A01 T00890061  RH  084%=      5-min Rain = 0
KBWS 110455Z 18009KT 09/06 A3001 RMK A01 T00890061  RH  084%=      5-min Rain = 0
KBWS 110500Z 18009KT 09/06 A3001 RMK A01 T00890061  RH  084%=      5-min Rain = 0
KBWS 110505Z 18010KT 09/06 A3002 RMK A01 T00890061  RH  084%=      5-min Rain = 0
KBWS 110510Z 19010KT 09/06 A3002 RMK A01 T00880060  RH  084%=      5-min Rain = 0
KBWS 110515Z 20011KT 09/06 A3002 RMK A01 T00880060  RH  084%=      5-min Rain = 0
KBWS 110520Z 20010KT 09/06 A3002 RMK A01 T00870059  RH  083%=      5-min Rain = 0
KBWS 110525Z 20010KT 09/06 A3001 RMK A01 T00860058  RH  084%=      5-min Rain = 0
KBWS 110530Z 20010KT 08/06 A3001 RMK A01 T00840057  RH  084%=      5-min Rain = 0
KBWS 110535Z 20010KT 08/06 A3001 RMK A01 T00840057  RH  084%=      5-min Rain = 0
KBWS 110540Z 20009KT 08/06 A3001 RMK A01 T00830057  RH  085%=      5-min Rain = 0
KBWS 110545Z 20009KT 08/06 A3001 RMK A01 T00830057  RH  085%=      5-min Rain = 0
KBWS 110550Z 20009KT 08/06 A3001 RMK A01 T00820057  RH  085%=      5-min Rain = 0
KBWS 110555Z 20009KT 08/06 A3001 RMK A01 T00820057  RH  086%=      5-min Rain = 0

Page generated in 0.0105 seconds.